sensor_id;sensor_type;location;lat;lon;timestamp;P1;durP1;ratioP1;P2;durP2;ratioP2
938;SDS011;456;53.584;9.968;2022-08-19T00:01:39;5.20;;;4.70;;
938;SDS011;456;53.584;9.968;2022-08-19T00:04:07;4.30;;;4.00;;
938;SDS011;456;53.584;9.968;2022-08-19T00:06:36;5.27;;;4.77;;
938;SDS011;456;53.584;9.968;2022-08-19T00:09:05;4.43;;;4.03;;
938;SDS011;456;53.584;9.968;2022-08-19T00:11:32;5.30;;;4.90;;
938;SDS011;456;53.584;9.968;2022-08-19T00:13:59;4.60;;;4.20;;
938;SDS011;456;53.584;9.968;2022-08-19T00:16:25;4.27;;;3.93;;
938;SDS011;456;53.584;9.968;2022-08-19T00:18:51;4.27;;;3.97;;
938;SDS011;456;53.584;9.968;2022-08-19T00:21:16;4.30;;;3.90;;
938;SDS011;456;53.584;9.968;2022-08-19T00:23:42;4.70;;;4.30;;
938;SDS011;456;53.584;9.968;2022-08-19T00:26:09;6.00;;;4.50;;
938;SDS011;456;53.584;9.968;2022-08-19T00:28:36;4.50;;;4.10;;
938;SDS011;456;53.584;9.968;2022-08-19T00:31:02;4.50;;;4.10;;
938;SDS011;456;53.584;9.968;2022-08-19T00:33:30;4.40;;;4.00;;
938;SDS011;456;53.584;9.968;2022-08-19T00:35:59;5.53;;;5.03;;
938;SDS011;456;53.584;9.968;2022-08-19T00:38:26;4.50;;;4.10;;
938;SDS011;456;53.584;9.968;2022-08-19T00:40:51;4.63;;;4.23;;
938;SDS011;456;53.584;9.968;2022-08-19T00:43:21;5.47;;;4.70;;
938;SDS011;456;53.584;9.968;2022-08-19T00:45:49;3.77;;;3.47;;
938;SDS011;456;53.584;9.968;2022-08-19T00:48:15;4.60;;;4.20;;
938;SDS011;456;53.584;9.968;2022-08-19T00:50:42;4.20;;;3.83;;
938;SDS011;456;53.584;9.968;2022-08-19T00:53:09;4.73;;;4.33;;
938;SDS011;456;53.584;9.968;2022-08-19T00:55:36;4.20;;;3.80;;
938;SDS011;456;53.584;9.968;2022-08-19T00:58:05;4.10;;;3.80;;
938;SDS011;456;53.584;9.968;2022-08-19T01:00:35;4.53;;;4.23;;
938;SDS011;456;53.584;9.968;2022-08-19T01:03:05;5.27;;;4.63;;
938;SDS011;456;53.584;9.968;2022-08-19T01:05:39;5.13;;;4.73;;
938;SDS011;456;53.584;9.968;2022-08-19T01:08:07;4.63;;;4.33;;
938;SDS011;456;53.584;9.968;2022-08-19T01:10:35;4.53;;;4.23;;
938;SDS011;456;53.584;9.968;2022-08-19T01:13:05;4.90;;;4.60;;
938;SDS011;456;53.584;9.968;2022-08-19T01:15:35;4.60;;;4.30;;
938;SDS011;456;53.584;9.968;2022-08-19T01:18:08;4.37;;;4.07;;
938;SDS011;456;53.584;9.968;2022-08-19T01:20:36;5.23;;;4.77;;
938;SDS011;456;53.584;9.968;2022-08-19T01:23:03;4.60;;;4.20;;
938;SDS011;456;53.584;9.968;2022-08-19T01:25:31;4.53;;;4.13;;
938;SDS011;456;53.584;9.968;2022-08-19T01:28:01;4.63;;;4.23;;
938;SDS011;456;53.584;9.968;2022-08-19T01:30:31;5.40;;;5.00;;
938;SDS011;456;53.584;9.968;2022-08-19T01:32:59;4.60;;;4.30;;
938;SDS011;456;53.584;9.968;2022-08-19T01:35:25;4.53;;;4.13;;
938;SDS011;456;53.584;9.968;2022-08-19T01:37:54;4.10;;;3.80;;
938;SDS011;456;53.584;9.968;2022-08-19T01:40:25;4.83;;;4.43;;
938;SDS011;456;53.584;9.968;2022-08-19T01:42:54;5.40;;;4.30;;
938;SDS011;456;53.584;9.968;2022-08-19T01:45:20;4.90;;;4.50;;
938;SDS011;456;53.584;9.968;2022-08-19T01:47:47;4.10;;;3.77;;
938;SDS011;456;53.584;9.968;2022-08-19T01:50:13;4.70;;;4.30;;
938;SDS011;456;53.584;9.968;2022-08-19T01:52:40;4.53;;;4.23;;
938;SDS011;456;53.584;9.968;2022-08-19T01:55:08;4.00;;;3.70;;
938;SDS011;456;53.584;9.968;2022-08-19T01:57:37;4.17;;;3.87;;
938;SDS011;456;53.584;9.968;2022-08-19T02:00:05;4.30;;;4.00;;
938;SDS011;456;53.584;9.968;2022-08-19T02:02:35;4.40;;;4.00;;
938;SDS011;456;53.584;9.968;2022-08-19T02:05:01;4.60;;;4.20;;
938;SDS011;456;53.584;9.968;2022-08-19T02:07:26;4.53;;;4.13;;
938;SDS011;456;53.584;9.968;2022-08-19T02:09:54;4.73;;;4.33;;
938;SDS011;456;53.584;9.968;2022-08-19T02:12:20;4.40;;;4.10;;
938;SDS011;456;53.584;9.968;2022-08-19T02:14:46;4.37;;;3.50;;
938;SDS011;456;53.584;9.968;2022-08-19T02:17:12;4.63;;;4.27;;
938;SDS011;456;53.584;9.968;2022-08-19T02:19:37;3.80;;;3.50;;
938;SDS011;456;53.584;9.968;2022-08-19T02:22:03;4.20;;;3.90;;
938;SDS011;456;53.584;9.968;2022-08-19T02:24:30;4.73;;;4.33;;
938;SDS011;456;53.584;9.968;2022-08-19T02:26:56;4.17;;;3.87;;
938;SDS011;456;53.584;9.968;2022-08-19T02:29:23;4.17;;;3.87;;
938;SDS011;456;53.584;9.968;2022-08-19T02:31:49;3.87;;;3.57;;
938;SDS011;456;53.584;9.968;2022-08-19T02:34:15;4.07;;;3.77;;
938;SDS011;456;53.584;9.968;2022-08-19T02:36:41;4.40;;;4.00;;
938;SDS011;456;53.584;9.968;2022-08-19T02:39:07;4.27;;;3.97;;
938;SDS011;456;53.584;9.968;2022-08-19T02:41:32;4.17;;;3.77;;
938;SDS011;456;53.584;9.968;2022-08-19T02:43:59;4.57;;;4.17;;
938;SDS011;456;53.584;9.968;2022-08-19T02:46:27;4.00;;;3.70;;
938;SDS011;456;53.584;9.968;2022-08-19T02:48:56;4.40;;;4.00;;
938;SDS011;456;53.584;9.968;2022-08-19T02:51:45;5.03;;;4.53;;
938;SDS011;456;53.584;9.968;2022-08-19T02:54:11;4.27;;;3.97;;
938;SDS011;456;53.584;9.968;2022-08-19T02:56:38;4.40;;;4.00;;
938;SDS011;456;53.584;9.968;2022-08-19T02:59:06;3.87;;;3.57;;
938;SDS011;456;53.584;9.968;2022-08-19T03:01:36;4.07;;;3.70;;
938;SDS011;456;53.584;9.968;2022-08-19T03:04:05;4.83;;;4.43;;
938;SDS011;456;53.584;9.968;2022-08-19T03:06:35;4.43;;;4.03;;
938;SDS011;456;53.584;9.968;2022-08-19T03:09:03;4.00;;;3.60;;
938;SDS011;456;53.584;9.968;2022-08-19T03:11:29;5.57;;;4.50;;
938;SDS011;456;53.584;9.968;2022-08-19T03:13:56;4.20;;;3.90;;
938;SDS011;456;53.584;9.968;2022-08-19T03:16:25;4.77;;;4.33;;
938;SDS011;456;53.584;9.968;2022-08-19T03:19:01;4.40;;;4.00;;
938;SDS011;456;53.584;9.968;2022-08-19T03:21:29;4.70;;;4.30;;
938;SDS011;456;53.584;9.968;2022-08-19T03:23:57;4.80;;;4.40;;
938;SDS011;456;53.584;9.968;2022-08-19T03:26:25;5.13;;;4.73;;
938;SDS011;456;53.584;9.968;2022-08-19T03:28:50;4.73;;;4.30;;
938;SDS011;456;53.584;9.968;2022-08-19T03:31:17;4.47;;;4.07;;
938;SDS011;456;53.584;9.968;2022-08-19T03:33:45;5.93;;;4.53;;
938;SDS011;456;53.584;9.968;2022-08-19T03:36:11;5.00;;;4.50;;
938;SDS011;456;53.584;9.968;2022-08-19T03:38:43;4.37;;;4.07;;
938;SDS011;456;53.584;9.968;2022-08-19T03:41:14;4.53;;;4.10;;
938;SDS011;456;53.584;9.968;2022-08-19T03:43:42;5.90;;;4.90;;
938;SDS011;456;53.584;9.968;2022-08-19T03:46:13;5.00;;;4.60;;
938;SDS011;456;53.584;9.968;2022-08-19T03:48:41;5.70;;;4.90;;
938;SDS011;456;53.584;9.968;2022-08-19T03:51:08;5.40;;;4.50;;
938;SDS011;456;53.584;9.968;2022-08-19T03:53:44;4.80;;;4.40;;
938;SDS011;456;53.584;9.968;2022-08-19T03:56:10;4.97;;;4.57;;
938;SDS011;456;53.584;9.968;2022-08-19T03:58:38;5.60;;;5.10;;
938;SDS011;456;53.584;9.968;2022-08-19T04:01:07;5.80;;;5.10;;
938;SDS011;456;53.584;9.968;2022-08-19T04:03:34;5.43;;;4.93;;
938;SDS011;456;53.584;9.968;2022-08-19T04:06:09;5.93;;;5.30;;
938;SDS011;456;53.584;9.968;2022-08-19T04:08:49;5.77;;;5.27;;
938;SDS011;456;53.584;9.968;2022-08-19T04:11:19;6.03;;;5.30;;
938;SDS011;456;53.584;9.968;2022-08-19T04:13:48;7.00;;;5.80;;
938;SDS011;456;53.584;9.968;2022-08-19T04:16:16;6.57;;;6.07;;
938;SDS011;456;53.584;9.968;2022-08-19T04:18:42;6.43;;;5.80;;
938;SDS011;456;53.584;9.968;2022-08-19T04:21:08;7.10;;;5.93;;
938;SDS011;456;53.584;9.968;2022-08-19T04:23:41;5.77;;;4.87;;
938;SDS011;456;53.584;9.968;2022-08-19T04:26:07;6.53;;;5.93;;
938;SDS011;456;53.584;9.968;2022-08-19T04:28:38;6.10;;;5.50;;
938;SDS011;456;53.584;9.968;2022-08-19T04:31:04;6.23;;;5.63;;
938;SDS011;456;53.584;9.968;2022-08-19T04:33:30;5.93;;;5.23;;
938;SDS011;456;53.584;9.968;2022-08-19T04:35:56;7.30;;;5.70;;
938;SDS011;456;53.584;9.968;2022-08-19T04:38:23;6.97;;;5.70;;
938;SDS011;456;53.584;9.968;2022-08-19T04:40:50;6.27;;;5.70;;
938;SDS011;456;53.584;9.968;2022-08-19T04:43:36;7.27;;;6.17;;
938;SDS011;456;53.584;9.968;2022-08-19T04:46:07;7.70;;;6.67;;
938;SDS011;456;53.584;9.968;2022-08-19T04:48:34;6.07;;;5.47;;
938;SDS011;456;53.584;9.968;2022-08-19T04:51:00;6.43;;;5.57;;
938;SDS011;456;53.584;9.968;2022-08-19T04:53:32;6.23;;;5.63;;
938;SDS011;456;53.584;9.968;2022-08-19T04:55:59;6.60;;;5.97;;
938;SDS011;456;53.584;9.968;2022-08-19T04:58:33;6.10;;;5.50;;
938;SDS011;456;53.584;9.968;2022-08-19T05:01:00;6.67;;;6.07;;
938;SDS011;456;53.584;9.968;2022-08-19T05:03:25;5.87;;;5.37;;
938;SDS011;456;53.584;9.968;2022-08-19T05:05:51;6.40;;;5.20;;
938;SDS011;456;53.584;9.968;2022-08-19T05:08:19;7.93;;;5.43;;
938;SDS011;456;53.584;9.968;2022-08-19T05:10:47;6.03;;;5.43;;
938;SDS011;456;53.584;9.968;2022-08-19T05:13:14;5.97;;;5.37;;
938;SDS011;456;53.584;9.968;2022-08-19T05:15:41;7.80;;;5.33;;
938;SDS011;456;53.584;9.968;2022-08-19T05:18:07;5.40;;;4.90;;
938;SDS011;456;53.584;9.968;2022-08-19T05:20:52;7.13;;;5.00;;
938;SDS011;456;53.584;9.968;2022-08-19T05:23:36;5.53;;;5.03;;
938;SDS011;456;53.584;9.968;2022-08-19T05:26:01;7.50;;;5.60;;
938;SDS011;456;53.584;9.968;2022-08-19T05:28:27;5.80;;;5.30;;
938;SDS011;456;53.584;9.968;2022-08-19T05:30:53;6.27;;;5.73;;
938;SDS011;456;53.584;9.968;2022-08-19T05:33:20;6.13;;;5.53;;
938;SDS011;456;53.584;9.968;2022-08-19T05:35:47;5.57;;;4.87;;
938;SDS011;456;53.584;9.968;2022-08-19T05:38:14;5.27;;;4.80;;
938;SDS011;456;53.584;9.968;2022-08-19T05:40:41;6.20;;;5.43;;
938;SDS011;456;53.584;9.968;2022-08-19T05:43:07;6.20;;;4.83;;
938;SDS011;456;53.584;9.968;2022-08-19T05:45:37;6.00;;;5.10;;
938;SDS011;456;53.584;9.968;2022-08-19T05:48:04;6.30;;;5.63;;
938;SDS011;456;53.584;9.968;2022-08-19T05:50:30;4.90;;;4.37;;
938;SDS011;456;53.584;9.968;2022-08-19T05:52:55;5.90;;;4.77;;
938;SDS011;456;53.584;9.968;2022-08-19T05:55:21;6.40;;;5.80;;
938;SDS011;456;53.584;9.968;2022-08-19T05:57:47;5.70;;;5.03;;
938;SDS011;456;53.584;9.968;2022-08-19T06:00:13;5.77;;;5.20;;
938;SDS011;456;53.584;9.968;2022-08-19T06:02:40;5.70;;;5.10;;
938;SDS011;456;53.584;9.968;2022-08-19T06:05:06;5.17;;;4.77;;
938;SDS011;456;53.584;9.968;2022-08-19T06:07:34;6.57;;;5.30;;
938;SDS011;456;53.584;9.968;2022-08-19T06:10:01;5.10;;;4.60;;
938;SDS011;456;53.584;9.968;2022-08-19T06:12:28;5.60;;;5.07;;
938;SDS011;456;53.584;9.968;2022-08-19T06:14:58;5.60;;;5.00;;
938;SDS011;456;53.584;9.968;2022-08-19T06:17:24;5.23;;;4.73;;
938;SDS011;456;53.584;9.968;2022-08-19T06:19:50;6.40;;;5.40;;
938;SDS011;456;53.584;9.968;2022-08-19T06:22:16;5.57;;;5.07;;
938;SDS011;456;53.584;9.968;2022-08-19T06:24:42;6.53;;;4.93;;
938;SDS011;456;53.584;9.968;2022-08-19T06:27:08;6.30;;;5.20;;
938;SDS011;456;53.584;9.968;2022-08-19T06:29:34;6.17;;;5.13;;
938;SDS011;456;53.584;9.968;2022-08-19T06:32:01;5.53;;;5.00;;
938;SDS011;456;53.584;9.968;2022-08-19T06:34:29;6.30;;;4.50;;
938;SDS011;456;53.584;9.968;2022-08-19T06:36:57;5.30;;;4.80;;
938;SDS011;456;53.584;9.968;2022-08-19T06:39:30;5.63;;;5.13;;
938;SDS011;456;53.584;9.968;2022-08-19T06:41:59;5.30;;;4.80;;
938;SDS011;456;53.584;9.968;2022-08-19T06:44:27;5.30;;;4.80;;
938;SDS011;456;53.584;9.968;2022-08-19T06:46:55;5.50;;;5.03;;
938;SDS011;456;53.584;9.968;2022-08-19T06:49:22;5.97;;;5.47;;
938;SDS011;456;53.584;9.968;2022-08-19T06:51:48;5.70;;;5.20;;
938;SDS011;456;53.584;9.968;2022-08-19T06:54:15;5.97;;;5.47;;
938;SDS011;456;53.584;9.968;2022-08-19T06:56:42;6.23;;;5.10;;
938;SDS011;456;53.584;9.968;2022-08-19T06:59:12;4.97;;;4.57;;
938;SDS011;456;53.584;9.968;2022-08-19T07:01:44;5.43;;;4.93;;
938;SDS011;456;53.584;9.968;2022-08-19T07:04:14;5.50;;;5.00;;
938;SDS011;456;53.584;9.968;2022-08-19T07:06:41;5.67;;;5.17;;
938;SDS011;456;53.584;9.968;2022-08-19T07:09:10;5.40;;;4.90;;
938;SDS011;456;53.584;9.968;2022-08-19T07:11:38;6.27;;;5.10;;
938;SDS011;456;53.584;9.968;2022-08-19T07:14:03;6.17;;;5.57;;
938;SDS011;456;53.584;9.968;2022-08-19T07:16:30;5.80;;;5.03;;
938;SDS011;456;53.584;9.968;2022-08-19T07:18:55;5.97;;;5.37;;
938;SDS011;456;53.584;9.968;2022-08-19T07:21:23;5.60;;;5.10;;
938;SDS011;456;53.584;9.968;2022-08-19T07:23:54;6.70;;;5.50;;
938;SDS011;456;53.584;9.968;2022-08-19T07:26:27;6.10;;;5.50;;
938;SDS011;456;53.584;9.968;2022-08-19T07:28:55;5.90;;;5.10;;
938;SDS011;456;53.584;9.968;2022-08-19T07:31:23;5.80;;;5.10;;
938;SDS011;456;53.584;9.968;2022-08-19T07:33:51;5.53;;;5.03;;
938;SDS011;456;53.584;9.968;2022-08-19T07:36:19;6.00;;;5.30;;
938;SDS011;456;53.584;9.968;2022-08-19T07:38:48;7.33;;;5.40;;
938;SDS011;456;53.584;9.968;2022-08-19T07:41:20;6.00;;;5.50;;
938;SDS011;456;53.584;9.968;2022-08-19T07:43:48;5.73;;;5.23;;
938;SDS011;456;53.584;9.968;2022-08-19T07:46:14;7.20;;;6.50;;
938;SDS011;456;53.584;9.968;2022-08-19T07:48:42;5.70;;;5.20;;
938;SDS011;456;53.584;9.968;2022-08-19T07:51:14;7.07;;;6.00;;
938;SDS011;456;53.584;9.968;2022-08-19T07:53:42;6.80;;;5.17;;
938;SDS011;456;53.584;9.968;2022-08-19T07:56:09;6.57;;;5.87;;
938;SDS011;456;53.584;9.968;2022-08-19T07:58:38;6.30;;;5.70;;
938;SDS011;456;53.584;9.968;2022-08-19T08:01:07;5.33;;;4.90;;
938;SDS011;456;53.584;9.968;2022-08-19T08:03:35;6.67;;;6.00;;
938;SDS011;456;53.584;9.968;2022-08-19T08:06:20;6.50;;;5.87;;
938;SDS011;456;53.584;9.968;2022-08-19T08:09:05;6.40;;;5.40;;
938;SDS011;456;53.584;9.968;2022-08-19T08:11:42;7.40;;;6.70;;
938;SDS011;456;53.584;9.968;2022-08-19T08:14:15;7.30;;;6.60;;
938;SDS011;456;53.584;9.968;2022-08-19T08:16:44;7.60;;;6.70;;
938;SDS011;456;53.584;9.968;2022-08-19T08:19:11;6.83;;;6.13;;
938;SDS011;456;53.584;9.968;2022-08-19T08:21:39;6.90;;;6.20;;
938;SDS011;456;53.584;9.968;2022-08-19T08:24:06;6.07;;;5.47;;
938;SDS011;456;53.584;9.968;2022-08-19T08:26:31;7.13;;;6.17;;
938;SDS011;456;53.584;9.968;2022-08-19T08:28:57;7.57;;;6.53;;
938;SDS011;456;53.584;9.968;2022-08-19T08:31:23;7.20;;;6.00;;
938;SDS011;456;53.584;9.968;2022-08-19T08:33:48;6.57;;;5.97;;
938;SDS011;456;53.584;9.968;2022-08-19T08:36:15;6.80;;;6.20;;
938;SDS011;456;53.584;9.968;2022-08-19T08:38:41;6.93;;;6.27;;
938;SDS011;456;53.584;9.968;2022-08-19T08:44:18;7.30;;;5.93;;
938;SDS011;456;53.584;9.968;2022-08-19T08:46:51;6.37;;;5.77;;
938;SDS011;456;53.584;9.968;2022-08-19T08:49:38;6.47;;;5.87;;
938;SDS011;456;53.584;9.968;2022-08-19T08:52:49;7.23;;;6.53;;
938;SDS011;456;53.584;9.968;2022-08-19T08:55:03;7.60;;;6.90;;
938;SDS011;456;53.584;9.968;2022-08-19T08:57:35;6.83;;;6.13;;
938;SDS011;456;53.584;9.968;2022-08-19T09:00:20;9.17;;;6.50;;
938;SDS011;456;53.584;9.968;2022-08-19T09:02:50;8.80;;;7.00;;
938;SDS011;456;53.584;9.968;2022-08-19T09:05:15;6.60;;;5.90;;
938;SDS011;456;53.584;9.968;2022-08-19T09:10:34;7.57;;;6.77;;
938;SDS011;456;53.584;9.968;2022-08-19T09:13:11;7.70;;;6.97;;
938;SDS011;456;53.584;9.968;2022-08-19T09:15:55;6.53;;;5.87;;
938;SDS011;456;53.584;9.968;2022-08-19T09:18:26;6.57;;;5.97;;
938;SDS011;456;53.584;9.968;2022-08-19T09:21:03;8.87;;;7.07;;
938;SDS011;456;53.584;9.968;2022-08-19T09:23:28;7.77;;;6.97;;
938;SDS011;456;53.584;9.968;2022-08-19T09:25:54;7.40;;;6.80;;
938;SDS011;456;53.584;9.968;2022-08-19T09:28:19;7.67;;;6.40;;
938;SDS011;456;53.584;9.968;2022-08-19T09:30:45;9.63;;;8.07;;
938;SDS011;456;53.584;9.968;2022-08-19T09:33:11;7.80;;;6.80;;
938;SDS011;456;53.584;9.968;2022-08-19T09:35:36;8.43;;;7.13;;
938;SDS011;456;53.584;9.968;2022-08-19T09:38:02;7.07;;;6.47;;
938;SDS011;456;53.584;9.968;2022-08-19T09:40:28;7.67;;;6.70;;
938;SDS011;456;53.584;9.968;2022-08-19T09:42:54;7.90;;;7.10;;
938;SDS011;456;53.584;9.968;2022-08-19T09:45:22;9.47;;;8.07;;
938;SDS011;456;53.584;9.968;2022-08-19T09:47:51;8.00;;;7.20;;
938;SDS011;456;53.584;9.968;2022-08-19T09:50:17;7.67;;;6.97;;
938;SDS011;456;53.584;9.968;2022-08-19T09:52:43;8.57;;;6.20;;
938;SDS011;456;53.584;9.968;2022-08-19T09:55:10;7.40;;;6.70;;
938;SDS011;456;53.584;9.968;2022-08-19T09:57:36;7.90;;;7.17;;
938;SDS011;456;53.584;9.968;2022-08-19T10:00:06;7.60;;;6.90;;
938;SDS011;456;53.584;9.968;2022-08-19T10:02:34;7.80;;;7.10;;
938;SDS011;456;53.584;9.968;2022-08-19T10:05:00;7.63;;;6.97;;
938;SDS011;456;53.584;9.968;2022-08-19T10:07:44;7.93;;;7.13;;
938;SDS011;456;53.584;9.968;2022-08-19T10:10:10;8.27;;;7.50;;
938;SDS011;456;53.584;9.968;2022-08-19T10:12:36;6.50;;;5.87;;
938;SDS011;456;53.584;9.968;2022-08-19T10:15:02;6.37;;;5.77;;
938;SDS011;456;53.584;9.968;2022-08-19T10:17:31;6.33;;;5.73;;
938;SDS011;456;53.584;9.968;2022-08-19T10:19:58;8.30;;;6.33;;
938;SDS011;456;53.584;9.968;2022-08-19T10:22:24;8.00;;;7.20;;
938;SDS011;456;53.584;9.968;2022-08-19T10:24:50;7.30;;;6.60;;
938;SDS011;456;53.584;9.968;2022-08-19T10:27:16;7.33;;;6.33;;
938;SDS011;456;53.584;9.968;2022-08-19T10:29:42;6.77;;;6.20;;
938;SDS011;456;53.584;9.968;2022-08-19T10:32:08;6.93;;;6.30;;
938;SDS011;456;53.584;9.968;2022-08-19T10:34:36;8.57;;;7.77;;
938;SDS011;456;53.584;9.968;2022-08-19T10:37:03;6.83;;;6.27;;
938;SDS011;456;53.584;9.968;2022-08-19T10:39:31;7.53;;;6.40;;
938;SDS011;456;53.584;9.968;2022-08-19T10:41:58;7.53;;;6.87;;
938;SDS011;456;53.584;9.968;2022-08-19T10:44:24;6.50;;;5.90;;
938;SDS011;456;53.584;9.968;2022-08-19T10:46:50;8.07;;;7.37;;
938;SDS011;456;53.584;9.968;2022-08-19T10:49:17;7.50;;;6.83;;
938;SDS011;456;53.584;9.968;2022-08-19T10:51:44;6.70;;;6.00;;
938;SDS011;456;53.584;9.968;2022-08-19T10:54:28;8.17;;;7.37;;
938;SDS011;456;53.584;9.968;2022-08-19T10:57:12;6.70;;;6.13;;
938;SDS011;456;53.584;9.968;2022-08-19T10:59:38;6.30;;;5.80;;
938;SDS011;456;53.584;9.968;2022-08-19T11:02:05;6.97;;;6.33;;
938;SDS011;456;53.584;9.968;2022-08-19T11:04:34;6.70;;;6.10;;
938;SDS011;456;53.584;9.968;2022-08-19T11:07:01;7.00;;;6.40;;
938;SDS011;456;53.584;9.968;2022-08-19T11:09:28;10.37;;;6.63;;
938;SDS011;456;53.584;9.968;2022-08-19T11:11:54;7.00;;;6.20;;
938;SDS011;456;53.584;9.968;2022-08-19T11:14:21;6.70;;;6.10;;
938;SDS011;456;53.584;9.968;2022-08-19T11:16:48;7.70;;;7.00;;
938;SDS011;456;53.584;9.968;2022-08-19T11:19:15;7.47;;;6.80;;
938;SDS011;456;53.584;9.968;2022-08-19T11:21:44;7.07;;;6.37;;
938;SDS011;456;53.584;9.968;2022-08-19T11:24:13;6.93;;;6.00;;
938;SDS011;456;53.584;9.968;2022-08-19T11:26:41;6.63;;;6.03;;
938;SDS011;456;53.584;9.968;2022-08-19T11:29:08;7.57;;;6.80;;
938;SDS011;456;53.584;9.968;2022-08-19T11:31:38;7.10;;;6.40;;
938;SDS011;456;53.584;9.968;2022-08-19T11:34:06;7.83;;;7.03;;
938;SDS011;456;53.584;9.968;2022-08-19T11:36:33;6.57;;;6.07;;
938;SDS011;456;53.584;9.968;2022-08-19T11:39:00;6.70;;;6.10;;
938;SDS011;456;53.584;9.968;2022-08-19T11:41:26;6.33;;;5.83;;
938;SDS011;456;53.584;9.968;2022-08-19T11:43:53;5.50;;;5.00;;
938;SDS011;456;53.584;9.968;2022-08-19T11:46:20;6.80;;;6.20;;
938;SDS011;456;53.584;9.968;2022-08-19T11:48:47;6.77;;;6.17;;
938;SDS011;456;53.584;9.968;2022-08-19T11:51:15;6.53;;;6.03;;
938;SDS011;456;53.584;9.968;2022-08-19T11:53:43;6.50;;;6.00;;
938;SDS011;456;53.584;9.968;2022-08-19T11:56:09;6.70;;;6.10;;
938;SDS011;456;53.584;9.968;2022-08-19T11:58:35;7.03;;;6.23;;
938;SDS011;456;53.584;9.968;2022-08-19T12:01:04;7.30;;;6.60;;
938;SDS011;456;53.584;9.968;2022-08-19T12:03:32;7.00;;;6.30;;
938;SDS011;456;53.584;9.968;2022-08-19T12:05:58;7.40;;;6.70;;
938;SDS011;456;53.584;9.968;2022-08-19T12:08:27;7.87;;;6.77;;
938;SDS011;456;53.584;9.968;2022-08-19T12:10:53;7.90;;;6.13;;
938;SDS011;456;53.584;9.968;2022-08-19T12:13:19;6.87;;;6.27;;
938;SDS011;456;53.584;9.968;2022-08-19T12:15:45;6.77;;;6.17;;
938;SDS011;456;53.584;9.968;2022-08-19T12:18:12;6.33;;;5.00;;
938;SDS011;456;53.584;9.968;2022-08-19T12:20:39;5.97;;;5.47;;
938;SDS011;456;53.584;9.968;2022-08-19T12:23:07;5.33;;;4.93;;
938;SDS011;456;53.584;9.968;2022-08-19T12:25:35;6.20;;;5.10;;
938;SDS011;456;53.584;9.968;2022-08-19T12:28:01;5.20;;;4.80;;
938;SDS011;456;53.584;9.968;2022-08-19T12:30:27;5.70;;;5.20;;
938;SDS011;456;53.584;9.968;2022-08-19T12:32:55;5.23;;;4.80;;
938;SDS011;456;53.584;9.968;2022-08-19T12:35:20;5.47;;;4.97;;
938;SDS011;456;53.584;9.968;2022-08-19T12:37:47;4.70;;;4.30;;
938;SDS011;456;53.584;9.968;2022-08-19T12:40:14;5.30;;;4.80;;
938;SDS011;456;53.584;9.968;2022-08-19T12:42:40;4.90;;;4.50;;
938;SDS011;456;53.584;9.968;2022-08-19T12:45:07;5.40;;;4.90;;
938;SDS011;456;53.584;9.968;2022-08-19T12:47:34;5.57;;;4.93;;
938;SDS011;456;53.584;9.968;2022-08-19T12:50:00;5.10;;;4.60;;
938;SDS011;456;53.584;9.968;2022-08-19T12:52:25;4.70;;;4.30;;
938;SDS011;456;53.584;9.968;2022-08-19T12:54:52;5.57;;;5.07;;
938;SDS011;456;53.584;9.968;2022-08-19T12:57:19;4.87;;;4.47;;
938;SDS011;456;53.584;9.968;2022-08-19T12:59:46;4.20;;;3.90;;
938;SDS011;456;53.584;9.968;2022-08-19T13:02:12;4.97;;;4.57;;
938;SDS011;456;53.584;9.968;2022-08-19T13:04:37;4.80;;;4.40;;
938;SDS011;456;53.584;9.968;2022-08-19T13:07:05;4.93;;;4.43;;
938;SDS011;456;53.584;9.968;2022-08-19T13:09:32;4.87;;;4.20;;
938;SDS011;456;53.584;9.968;2022-08-19T13:11:58;3.80;;;3.50;;
938;SDS011;456;53.584;9.968;2022-08-19T13:14:27;9.20;;;4.63;;
938;SDS011;456;53.584;9.968;2022-08-19T13:16:54;5.13;;;4.63;;
938;SDS011;456;53.584;9.968;2022-08-19T13:19:19;4.43;;;4.03;;
938;SDS011;456;53.584;9.968;2022-08-19T13:21:49;4.30;;;4.00;;
938;SDS011;456;53.584;9.968;2022-08-19T13:24:15;3.93;;;3.63;;
938;SDS011;456;53.584;9.968;2022-08-19T13:26:41;4.53;;;4.13;;
938;SDS011;456;53.584;9.968;2022-08-19T13:29:07;4.00;;;3.70;;
938;SDS011;456;53.584;9.968;2022-08-19T13:31:51;4.10;;;3.70;;
938;SDS011;456;53.584;9.968;2022-08-19T13:34:35;4.53;;;4.13;;
938;SDS011;456;53.584;9.968;2022-08-19T13:37:02;4.37;;;3.97;;
938;SDS011;456;53.584;9.968;2022-08-19T13:39:29;4.17;;;3.87;;
938;SDS011;456;53.584;9.968;2022-08-19T13:41:57;4.27;;;3.97;;
938;SDS011;456;53.584;9.968;2022-08-19T13:44:25;4.13;;;3.83;;
938;SDS011;456;53.584;9.968;2022-08-19T13:46:54;4.37;;;4.07;;
938;SDS011;456;53.584;9.968;2022-08-19T13:49:24;4.10;;;3.80;;
938;SDS011;456;53.584;9.968;2022-08-19T13:51:49;3.93;;;3.63;;
938;SDS011;456;53.584;9.968;2022-08-19T13:54:15;4.50;;;4.10;;
938;SDS011;456;53.584;9.968;2022-08-19T13:56:42;4.00;;;3.70;;
938;SDS011;456;53.584;9.968;2022-08-19T13:59:08;4.40;;;4.00;;
938;SDS011;456;53.584;9.968;2022-08-19T14:01:34;4.00;;;3.70;;
938;SDS011;456;53.584;9.968;2022-08-19T14:04:00;4.00;;;3.70;;
938;SDS011;456;53.584;9.968;2022-08-19T14:06:26;3.93;;;3.63;;
938;SDS011;456;53.584;9.968;2022-08-19T14:08:51;4.07;;;3.77;;
938;SDS011;456;53.584;9.968;2022-08-19T14:11:17;3.80;;;3.50;;
938;SDS011;456;53.584;9.968;2022-08-19T14:13:43;4.40;;;4.00;;
938;SDS011;456;53.584;9.968;2022-08-19T14:16:09;3.87;;;3.67;;
938;SDS011;456;53.584;9.968;2022-08-19T14:18:38;3.90;;;3.60;;
938;SDS011;456;53.584;9.968;2022-08-19T14:21:04;4.95;;;4.55;;
938;SDS011;456;53.584;9.968;2022-08-19T14:23:31;4.77;;;4.07;;
938;SDS011;456;53.584;9.968;2022-08-19T14:26:04;4.20;;;3.90;;
938;SDS011;456;53.584;9.968;2022-08-19T14:28:41;4.43;;;4.03;;
938;SDS011;456;53.584;9.968;2022-08-19T14:31:10;4.20;;;3.90;;
938;SDS011;456;53.584;9.968;2022-08-19T14:33:37;4.57;;;4.23;;
938;SDS011;456;53.584;9.968;2022-08-19T14:36:04;4.37;;;3.97;;
938;SDS011;456;53.584;9.968;2022-08-19T14:38:30;4.50;;;4.20;;
938;SDS011;456;53.584;9.968;2022-08-19T14:41:05;4.00;;;3.70;;
938;SDS011;456;53.584;9.968;2022-08-19T14:43:34;4.87;;;4.50;;
938;SDS011;456;53.584;9.968;2022-08-19T14:45:59;4.50;;;4.10;;
938;SDS011;456;53.584;9.968;2022-08-19T14:48:25;4.50;;;4.10;;
938;SDS011;456;53.584;9.968;2022-08-19T14:50:51;4.80;;;4.40;;
938;SDS011;456;53.584;9.968;2022-08-19T14:53:17;4.60;;;4.23;;
938;SDS011;456;53.584;9.968;2022-08-19T14:55:43;3.90;;;3.60;;
938;SDS011;456;53.584;9.968;2022-08-19T14:58:10;4.03;;;3.73;;
938;SDS011;456;53.584;9.968;2022-08-19T15:00:37;4.20;;;3.90;;
938;SDS011;456;53.584;9.968;2022-08-19T15:03:02;4.00;;;3.70;;
938;SDS011;456;53.584;9.968;2022-08-19T15:05:28;4.60;;;4.20;;
938;SDS011;456;53.584;9.968;2022-08-19T15:07:53;3.77;;;3.47;;
938;SDS011;456;53.584;9.968;2022-08-19T15:10:21;4.77;;;4.27;;
938;SDS011;456;53.584;9.968;2022-08-19T15:12:48;4.00;;;3.70;;
938;SDS011;456;53.584;9.968;2022-08-19T15:15:14;4.23;;;3.83;;
938;SDS011;456;53.584;9.968;2022-08-19T15:17:42;4.20;;;3.87;;
938;SDS011;456;53.584;9.968;2022-08-19T15:20:09;4.57;;;4.17;;
938;SDS011;456;53.584;9.968;2022-08-19T15:22:37;4.23;;;3.93;;
938;SDS011;456;53.584;9.968;2022-08-19T15:25:03;4.57;;;4.20;;
938;SDS011;456;53.584;9.968;2022-08-19T15:27:30;4.10;;;3.80;;
938;SDS011;456;53.584;9.968;2022-08-19T15:29:55;3.90;;;3.60;;
938;SDS011;456;53.584;9.968;2022-08-19T15:32:21;4.10;;;3.80;;
938;SDS011;456;53.584;9.968;2022-08-19T15:34:48;4.60;;;4.20;;
938;SDS011;456;53.584;9.968;2022-08-19T15:37:14;4.00;;;3.70;;
938;SDS011;456;53.584;9.968;2022-08-19T15:39:39;4.10;;;3.80;;
938;SDS011;456;53.584;9.968;2022-08-19T15:42:05;3.80;;;3.50;;
938;SDS011;456;53.584;9.968;2022-08-19T15:44:31;4.00;;;3.70;;
938;SDS011;456;53.584;9.968;2022-08-19T15:46:58;3.93;;;3.63;;
938;SDS011;456;53.584;9.968;2022-08-19T15:49:23;4.17;;;3.87;;
938;SDS011;456;53.584;9.968;2022-08-19T15:51:49;4.40;;;4.10;;
938;SDS011;456;53.584;9.968;2022-08-19T15:54:18;4.20;;;3.90;;
938;SDS011;456;53.584;9.968;2022-08-19T15:56:46;3.90;;;3.60;;